KCEY/CEY METAR and TAF weather

Enter ICAO airport designator
Station Type Date Time Source
KCEY METAR 2021/09/24 06:35 UTC NOAA

KCEY 240635Z AUTO 00000KT 10SM 10/09 A3008 RMK AO1


Station Type Date Time Source
KCEY Decoded METAR 2021/09/24 06:35 UTC NOAA

Station name not available
Sep 24, 2021 - 02:35 AM EDT / 2021.09.24 0635 UTC
Wind: Calm:0
Visibility: 10 mile(s):0
Temperature: 50 F (10 C)
Dew Point: 48 F (9 C)
Relative Humidity: 93%
Pressure (altimeter): 30.08 in. Hg (1018 hPa)
ob: KCEY 240635Z AUTO 00000KT 10SM 10/09 A3008 RMK AO1
cycle: 6

Station Type Date Time Source
KCEY TAF UTC NOAA

Error!

Example: see airport list